sensor_id;sensor_type;location;lat;lon;timestamp;pressure;altitude;pressure_sealevel;temperature;humidity
74675;BME280;63200;48.810;12.352;2024-02-14T00:02:13;97981.59;;;-0.77;100.00
74675;BME280;63200;48.810;12.352;2024-02-14T00:04:39;97986.94;;;-0.77;100.00
74675;BME280;63200;48.810;12.352;2024-02-14T00:07:04;97988.56;;;-0.83;100.00
74675;BME280;63200;48.810;12.352;2024-02-14T00:09:29;97980.69;;;-0.98;100.00
74675;BME280;63200;48.810;12.352;2024-02-14T00:11:55;97976.38;;;-1.06;100.00
74675;BME280;63200;48.810;12.352;2024-02-14T00:14:20;97980.03;;;-1.07;100.00
74675;BME280;63200;48.810;12.352;2024-02-14T00:16:46;97984.53;;;-1.07;100.00
74675;BME280;63200;48.810;12.352;2024-02-14T00:19:11;97982.47;;;-1.12;100.00
74675;BME280;63200;48.810;12.352;2024-02-14T00:21:37;97982.69;;;-1.13;100.00
74675;BME280;63200;48.810;12.352;2024-02-14T00:24:03;97980.59;;;-1.18;100.00
74675;BME280;63200;48.810;12.352;2024-02-14T00:26:30;97984.91;;;-1.17;100.00
74675;BME280;63200;48.810;12.352;2024-02-14T00:28:55;97990.22;;;-1.17;100.00
74675;BME280;63200;48.810;12.352;2024-02-14T00:31:20;97988.97;;;-1.21;100.00
74675;BME280;63200;48.810;12.352;2024-02-14T00:33:46;97994.88;;;-1.26;100.00
74675;BME280;63200;48.810;12.352;2024-02-14T00:36:11;97986.31;;;-1.21;100.00
74675;BME280;63200;48.810;12.352;2024-02-14T00:38:36;97985.31;;;-1.20;100.00
74675;BME280;63200;48.810;12.352;2024-02-14T00:41:02;97992.47;;;-1.21;100.00
74675;BME280;63200;48.810;12.352;2024-02-14T00:43:27;97997.53;;;-1.26;100.00
74675;BME280;63200;48.810;12.352;2024-02-14T00:45:53;97999.16;;;-1.31;100.00
74675;BME280;63200;48.810;12.352;2024-02-14T00:48:18;97996.50;;;-1.31;100.00
74675;BME280;63200;48.810;12.352;2024-02-14T00:50:44;98000.78;;;-1.37;100.00
74675;BME280;63200;48.810;12.352;2024-02-14T00:53:10;97992.28;;;-1.47;100.00
74675;BME280;63200;48.810;12.352;2024-02-14T00:55:35;97988.38;;;-1.52;100.00
74675;BME280;63200;48.810;12.352;2024-02-14T00:58:00;97982.41;;;-1.54;100.00
74675;BME280;63200;48.810;12.352;2024-02-14T01:00:25;97995.56;;;-1.52;100.00
74675;BME280;63200;48.810;12.352;2024-02-14T01:02:51;97993.47;;;-1.57;100.00
74675;BME280;63200;48.810;12.352;2024-02-14T01:05:16;97986.88;;;-1.61;100.00
74675;BME280;63200;48.810;12.352;2024-02-14T01:07:42;97976.22;;;-1.61;100.00
74675;BME280;63200;48.810;12.352;2024-02-14T01:10:07;97991.28;;;-1.46;100.00
74675;BME280;63200;48.810;12.352;2024-02-14T01:12:33;98000.31;;;-1.41;100.00
74675;BME280;63200;48.810;12.352;2024-02-14T01:14:58;97998.09;;;-1.37;100.00
74675;BME280;63200;48.810;12.352;2024-02-14T01:17:23;97997.09;;;-1.36;100.00
74675;BME280;63200;48.810;12.352;2024-02-14T01:19:50;97997.25;;;-1.38;100.00
74675;BME280;63200;48.810;12.352;2024-02-14T01:22:15;98000.97;;;-1.39;100.00
74675;BME280;63200;48.810;12.352;2024-02-14T01:24:42;98001.22;;;-1.33;100.00
74675;BME280;63200;48.810;12.352;2024-02-14T01:27:08;97989.16;;;-1.29;100.00
74675;BME280;63200;48.810;12.352;2024-02-14T01:29:34;97986.69;;;-1.31;100.00
74675;BME280;63200;48.810;12.352;2024-02-14T01:31:59;97992.38;;;-1.34;100.00
74675;BME280;63200;48.810;12.352;2024-02-14T01:34:24;97904.19;;;-1.88;100.00
74675;BME280;63200;48.810;12.352;2024-02-14T01:36:49;97941.78;;;-1.69;100.00
74675;BME280;63200;48.810;12.352;2024-02-14T01:39:15;97985.78;;;-1.38;100.00
74675;BME280;63200;48.810;12.352;2024-02-14T01:41:47;97964.00;;;-1.48;100.00
74675;BME280;63200;48.810;12.352;2024-02-14T01:44:14;97983.28;;;-1.46;100.00
74675;BME280;63200;48.810;12.352;2024-02-14T01:46:39;97982.66;;;-1.48;100.00
74675;BME280;63200;48.810;12.352;2024-02-14T01:49:04;97982.91;;;-1.43;100.00
74675;BME280;63200;48.810;12.352;2024-02-14T01:51:31;97988.47;;;-1.38;100.00
74675;BME280;63200;48.810;12.352;2024-02-14T01:53:58;97983.38;;;-1.33;100.00
74675;BME280;63200;48.810;12.352;2024-02-14T01:56:24;97994.06;;;-1.26;100.00
74675;BME280;63200;48.810;12.352;2024-02-14T01:58:50;97991.44;;;-1.20;100.00
74675;BME280;63200;48.810;12.352;2024-02-14T02:01:16;97989.25;;;-1.09;100.00
74675;BME280;63200;48.810;12.352;2024-02-14T02:03:43;97995.63;;;-1.04;100.00
74675;BME280;63200;48.810;12.352;2024-02-14T02:06:08;97935.19;;;-1.38;100.00
74675;BME280;63200;48.810;12.352;2024-02-14T02:08:34;97992.22;;;-0.91;100.00
74675;BME280;63200;48.810;12.352;2024-02-14T02:10:59;97998.59;;;-0.85;100.00
74675;BME280;63200;48.810;12.352;2024-02-14T02:13:24;97996.34;;;-0.81;100.00
74675;BME280;63200;48.810;12.352;2024-02-14T02:15:51;97989.19;;;-0.74;100.00
74675;BME280;63200;48.810;12.352;2024-02-14T02:18:18;97995.38;;;-0.67;100.00
74675;BME280;63200;48.810;12.352;2024-02-14T02:20:44;97996.00;;;-0.65;100.00
74675;BME280;63200;48.810;12.352;2024-02-14T02:23:12;97937.84;;;-1.03;100.00
74675;BME280;63200;48.810;12.352;2024-02-14T02:25:41;97960.22;;;-0.91;100.00
74675;BME280;63200;48.810;12.352;2024-02-14T02:28:07;97932.69;;;-1.05;100.00
74675;BME280;63200;48.810;12.352;2024-02-14T02:30:34;97994.78;;;-0.62;100.00
74675;BME280;63200;48.810;12.352;2024-02-14T02:33:00;97994.19;;;-0.58;100.00
74675;BME280;63200;48.810;12.352;2024-02-14T02:35:26;97992.56;;;-0.52;100.00
74675;BME280;63200;48.810;12.352;2024-02-14T02:37:51;97993.78;;;-0.55;100.00
74675;BME280;63200;48.810;12.352;2024-02-14T02:40:19;97970.34;;;-0.73;100.00
74675;BME280;63200;48.810;12.352;2024-02-14T02:42:46;97994.59;;;-0.61;100.00
74675;BME280;63200;48.810;12.352;2024-02-14T02:45:11;97997.66;;;-0.57;100.00
74675;BME280;63200;48.810;12.352;2024-02-14T02:47:37;97992.34;;;-0.57;100.00
74675;BME280;63200;48.810;12.352;2024-02-14T02:50:02;97992.53;;;-0.59;100.00
74675;BME280;63200;48.810;12.352;2024-02-14T02:52:28;97993.19;;;-0.57;100.00
74675;BME280;63200;48.810;12.352;2024-02-14T02:54:55;97985.78;;;-0.55;100.00
74675;BME280;63200;48.810;12.352;2024-02-14T02:57:20;97984.97;;;-0.55;100.00
74675;BME280;63200;48.810;12.352;2024-02-14T02:59:45;97981.47;;;-0.56;100.00
74675;BME280;63200;48.810;12.352;2024-02-14T03:02:13;97991.53;;;-0.58;100.00
74675;BME280;63200;48.810;12.352;2024-02-14T03:04:39;97936.03;;;-0.89;100.00
74675;BME280;63200;48.810;12.352;2024-02-14T03:07:05;97990.66;;;-0.65;100.00
74675;BME280;63200;48.810;12.352;2024-02-14T03:09:33;97933.75;;;-0.99;100.00
74675;BME280;63200;48.810;12.352;2024-02-14T03:11:58;97923.44;;;-1.09;100.00
74675;BME280;63200;48.810;12.352;2024-02-14T03:14:23;97928.16;;;-1.11;100.00
74675;BME280;63200;48.810;12.352;2024-02-14T03:16:49;97988.38;;;-0.75;100.00
74675;BME280;63200;48.810;12.352;2024-02-14T03:19:14;97993.91;;;-0.76;100.00
74675;BME280;63200;48.810;12.352;2024-02-14T03:21:39;97984.88;;;-0.82;100.00
74675;BME280;63200;48.810;12.352;2024-02-14T03:24:05;97995.72;;;-0.84;100.00
74675;BME280;63200;48.810;12.352;2024-02-14T03:26:33;97968.44;;;-0.92;100.00
74675;BME280;63200;48.810;12.352;2024-02-14T03:29:00;97992.78;;;-0.95;100.00
74675;BME280;63200;48.810;12.352;2024-02-14T03:31:25;97954.31;;;-1.28;100.00
74675;BME280;63200;48.810;12.352;2024-02-14T03:33:51;97999.13;;;-1.03;100.00
74675;BME280;63200;48.810;12.352;2024-02-14T03:36:16;97995.59;;;-1.10;100.00
74675;BME280;63200;48.810;12.352;2024-02-14T03:38:42;97996.38;;;-1.17;100.00
74675;BME280;63200;48.810;12.352;2024-02-14T03:41:07;98003.13;;;-1.21;100.00
74675;BME280;63200;48.810;12.352;2024-02-14T03:43:32;98006.19;;;-1.24;100.00
74675;BME280;63200;48.810;12.352;2024-02-14T03:45:58;98008.84;;;-1.24;100.00
74675;BME280;63200;48.810;12.352;2024-02-14T03:48:23;97997.53;;;-1.26;100.00
74675;BME280;63200;48.810;12.352;2024-02-14T03:50:48;97994.88;;;-1.26;100.00
74675;BME280;63200;48.810;12.352;2024-02-14T03:53:14;97999.78;;;-1.29;100.00
74675;BME280;63200;48.810;12.352;2024-02-14T03:55:40;97994.38;;;-1.43;100.00
74675;BME280;63200;48.810;12.352;2024-02-14T03:58:06;98000.03;;;-1.53;100.00
74675;BME280;63200;48.810;12.352;2024-02-14T04:00:33;97997.53;;;-1.61;100.00
74675;BME280;63200;48.810;12.352;2024-02-14T04:03:00;98002.34;;;-1.71;100.00
74675;BME280;63200;48.810;12.352;2024-02-14T04:05:27;98001.34;;;-1.70;100.00
74675;BME280;63200;48.810;12.352;2024-02-14T04:07:54;97961.97;;;-2.03;100.00
74675;BME280;63200;48.810;12.352;2024-02-14T04:10:20;97930.69;;;-2.23;100.00
74675;BME280;63200;48.810;12.352;2024-02-14T04:12:46;98002.94;;;-1.76;100.00
74675;BME280;63200;48.810;12.352;2024-02-14T04:15:11;97999.03;;;-1.80;100.00
74675;BME280;63200;48.810;12.352;2024-02-14T04:17:38;98005.38;;;-1.81;100.00
74675;BME280;63200;48.810;12.352;2024-02-14T04:20:04;98005.38;;;-1.81;100.00
74675;BME280;63200;48.810;12.352;2024-02-14T04:22:30;98005.63;;;-1.76;100.00
74675;BME280;63200;48.810;12.352;2024-02-14T04:24:55;97996.78;;;-1.76;100.00
74675;BME280;63200;48.810;12.352;2024-02-14T04:27:21;98004.53;;;-1.81;100.00
74675;BME280;63200;48.810;12.352;2024-02-14T04:29:47;97994.25;;;-1.85;100.00
74675;BME280;63200;48.810;12.352;2024-02-14T04:32:13;97995.66;;;-1.89;100.00
74675;BME280;63200;48.810;12.352;2024-02-14T04:34:39;98004.91;;;-1.85;100.00
74675;BME280;63200;48.810;12.352;2024-02-14T04:37:05;98003.91;;;-1.83;100.00
74675;BME280;63200;48.810;12.352;2024-02-14T04:39:36;98006.16;;;-1.80;100.00
74675;BME280;63200;48.810;12.352;2024-02-14T04:42:01;98010.72;;;-1.74;100.00
74675;BME280;63200;48.810;12.352;2024-02-14T04:44:30;98023.66;;;-1.71;100.00
74675;BME280;63200;48.810;12.352;2024-02-14T04:46:56;98017.50;;;-1.72;100.00
74675;BME280;63200;48.810;12.352;2024-02-14T04:49:24;98023.09;;;-1.66;100.00
74675;BME280;63200;48.810;12.352;2024-02-14T04:51:49;98024.41;;;-1.77;100.00
74675;BME280;63200;48.810;12.352;2024-02-14T04:54:15;98028.38;;;-1.73;100.00
74675;BME280;63200;48.810;12.352;2024-02-14T04:56:41;98032.28;;;-1.69;100.00
74675;BME280;63200;48.810;12.352;2024-02-14T04:59:07;97974.53;;;-1.97;100.00
74675;BME280;63200;48.810;12.352;2024-02-14T05:01:33;98026.13;;;-1.70;100.00
74675;BME280;63200;48.810;12.352;2024-02-14T05:03:59;98029.38;;;-1.74;100.00
74675;BME280;63200;48.810;12.352;2024-02-14T05:06:24;98024.44;;;-1.49;100.00
74675;BME280;63200;48.810;12.352;2024-02-14T05:08:49;98020.78;;;-1.48;100.00
74675;BME280;63200;48.810;12.352;2024-02-14T05:11:16;98027.19;;;-1.36;100.00
74675;BME280;63200;48.810;12.352;2024-02-14T05:13:42;98013.06;;;-1.36;100.00
74675;BME280;63200;48.810;12.352;2024-02-14T05:16:46;98011.88;;;-1.33;100.00
74675;BME280;63200;48.810;12.352;2024-02-14T05:19:11;97990.63;;;-1.48;100.00
74675;BME280;63200;48.810;12.352;2024-02-14T05:21:37;98019.50;;;-1.24;100.00
74675;BME280;63200;48.810;12.352;2024-02-14T05:24:03;98023.91;;;-1.09;100.00
74675;BME280;63200;48.810;12.352;2024-02-14T05:26:29;98015.91;;;-1.09;100.00
74675;BME280;63200;48.810;12.352;2024-02-14T05:28:54;98028.00;;;-1.07;100.00
74675;BME280;63200;48.810;12.352;2024-02-14T05:31:19;98032.31;;;-1.06;100.00
74675;BME280;63200;48.810;12.352;2024-02-14T05:33:45;98030.28;;;-1.04;100.00
74675;BME280;63200;48.810;12.352;2024-02-14T05:36:10;98035.41;;;-1.02;100.00
74675;BME280;63200;48.810;12.352;2024-02-14T05:38:35;98010.97;;;-1.12;100.00
74675;BME280;63200;48.810;12.352;2024-02-14T05:41:01;97997.78;;;-1.21;100.00
74675;BME280;63200;48.810;12.352;2024-02-14T05:43:26;98027.81;;;-1.05;100.00
74675;BME280;63200;48.810;12.352;2024-02-14T05:45:51;97985.72;;;-1.52;100.00
74675;BME280;63200;48.810;12.352;2024-02-14T05:48:16;98023.09;;;-1.10;100.00
74675;BME280;63200;48.810;12.352;2024-02-14T05:50:42;98017.88;;;-1.18;100.00
74675;BME280;63200;48.810;12.352;2024-02-14T05:53:07;98018.72;;;-1.18;100.00
74675;BME280;63200;48.810;12.352;2024-02-14T05:55:32;98010.16;;;-1.06;100.00
74675;BME280;63200;48.810;12.352;2024-02-14T05:57:58;97998.22;;;-1.17;100.00
74675;BME280;63200;48.810;12.352;2024-02-14T06:00:24;98024.72;;;-1.09;100.00
74675;BME280;63200;48.810;12.352;2024-02-14T06:02:50;98019.13;;;-1.14;100.00
74675;BME280;63200;48.810;12.352;2024-02-14T06:05:16;97963.34;;;-1.57;100.00
74675;BME280;63200;48.810;12.352;2024-02-14T06:07:41;98017.28;;;-1.20;100.00
74675;BME280;63200;48.810;12.352;2024-02-14T06:10:07;98015.38;;;-1.26;100.00
74675;BME280;63200;48.810;12.352;2024-02-14T06:12:33;98014.94;;;-1.30;100.00
74675;BME280;63200;48.810;12.352;2024-02-14T06:14:59;97936.16;;;-1.81;100.00
74675;BME280;63200;48.810;12.352;2024-02-14T06:17:25;98017.00;;;-1.32;100.00
74675;BME280;63200;48.810;12.352;2024-02-14T06:19:53;98017.75;;;-1.38;100.00
74675;BME280;63200;48.810;12.352;2024-02-14T06:22:19;98012.69;;;-1.33;100.00
74675;BME280;63200;48.810;12.352;2024-02-14T06:24:45;98017.22;;;-1.27;100.00
74675;BME280;63200;48.810;12.352;2024-02-14T06:27:13;98021.38;;;-1.18;100.00
74675;BME280;63200;48.810;12.352;2024-02-14T06:29:42;97992.78;;;-1.37;100.00
74675;BME280;63200;48.810;12.352;2024-02-14T06:32:07;98030.88;;;-1.08;100.00
74675;BME280;63200;48.810;12.352;2024-02-14T06:34:32;98031.72;;;-1.01;100.00
74675;BME280;63200;48.810;12.352;2024-02-14T06:36:58;98033.84;;;-0.90;100.00
74675;BME280;63200;48.810;12.352;2024-02-14T06:39:23;98046.00;;;-0.80;100.00
74675;BME280;63200;48.810;12.352;2024-02-14T06:41:48;98047.63;;;-0.79;100.00
74675;BME280;63200;48.810;12.352;2024-02-14T06:44:13;98057.56;;;-0.60;100.00
74675;BME280;63200;48.810;12.352;2024-02-14T06:46:39;98075.19;;;-0.65;100.00
74675;BME280;63200;48.810;12.352;2024-02-14T06:49:04;98081.97;;;-0.63;100.00
74675;BME280;63200;48.810;12.352;2024-02-14T06:51:30;98084.66;;;-0.56;100.00
74675;BME280;63200;48.810;12.352;2024-02-14T06:53:56;98089.44;;;-0.52;100.00
74675;BME280;63200;48.810;12.352;2024-02-14T06:56:22;98087.59;;;-0.44;100.00
74675;BME280;63200;48.810;12.352;2024-02-14T06:58:47;98088.25;;;-0.42;100.00
74675;BME280;63200;48.810;12.352;2024-02-14T07:01:17;98090.50;;;-0.39;100.00
74675;BME280;63200;48.810;12.352;2024-02-14T07:03:47;98099.94;;;-0.37;100.00
74675;BME280;63200;48.810;12.352;2024-02-14T07:06:12;98090.53;;;-0.32;100.00
74675;BME280;63200;48.810;12.352;2024-02-14T07:08:40;98093.81;;;-0.30;100.00
74675;BME280;63200;48.810;12.352;2024-02-14T07:11:05;98092.63;;;-0.21;100.00
74675;BME280;63200;48.810;12.352;2024-02-14T07:13:31;98097.38;;;-0.10;100.00
74675;BME280;63200;48.810;12.352;2024-02-14T07:15:56;98097.41;;;-0.03;100.00
74675;BME280;63200;48.810;12.352;2024-02-14T07:18:21;98088.81;;;0.08;100.00
74675;BME280;63200;48.810;12.352;2024-02-14T07:20:47;98098.28;;;0.18;100.00
74675;BME280;63200;48.810;12.352;2024-02-14T07:23:12;98092.09;;;0.24;100.00
74675;BME280;63200;48.810;12.352;2024-02-14T07:25:37;98097.88;;;0.27;100.00
74675;BME280;63200;48.810;12.352;2024-02-14T07:28:03;98100.34;;;0.36;100.00
74675;BME280;63200;48.810;12.352;2024-02-14T07:30:28;98084.53;;;0.41;100.00
74675;BME280;63200;48.810;12.352;2024-02-14T07:32:53;98084.75;;;0.59;100.00
74675;BME280;63200;48.810;12.352;2024-02-14T07:35:19;98083.94;;;0.59;100.00
74675;BME280;63200;48.810;12.352;2024-02-14T07:37:44;98089.28;;;0.59;100.00
74675;BME280;63200;48.810;12.352;2024-02-14T07:40:10;98092.97;;;0.51;100.00
74675;BME280;63200;48.810;12.352;2024-02-14T07:42:35;98052.06;;;0.24;100.00
74675;BME280;63200;48.810;12.352;2024-02-14T07:45:01;98093.81;;;0.65;100.00
74675;BME280;63200;48.810;12.352;2024-02-14T07:47:28;98091.97;;;0.72;100.00
74675;BME280;63200;48.810;12.352;2024-02-14T07:49:54;98091.97;;;0.72;100.00
74675;BME280;63200;48.810;12.352;2024-02-14T07:52:20;98097.31;;;0.72;100.00
74675;BME280;63200;48.810;12.352;2024-02-14T07:54:46;98102.44;;;0.80;100.00
74675;BME280;63200;48.810;12.352;2024-02-14T07:57:11;98098.13;;;0.93;100.00
74675;BME280;63200;48.810;12.352;2024-02-14T07:59:36;98118.28;;;0.95;100.00
74675;BME280;63200;48.810;12.352;2024-02-14T08:02:02;98128.97;;;1.09;100.00
74675;BME280;63200;48.810;12.352;2024-02-14T08:04:27;98126.28;;;1.22;100.00
74675;BME280;63200;48.810;12.352;2024-02-14T08:06:53;98127.94;;;1.23;100.00
74675;BME280;63200;48.810;12.352;2024-02-14T08:09:18;98124.41;;;1.29;100.00
74675;BME280;63200;48.810;12.352;2024-02-14T08:11:43;98128.94;;;1.29;100.00
74675;BME280;63200;48.810;12.352;2024-02-14T08:14:09;98122.34;;;1.31;100.00
74675;BME280;63200;48.810;12.352;2024-02-14T08:16:34;98126.00;;;1.44;100.00
74675;BME280;63200;48.810;12.352;2024-02-14T08:19:01;98122.34;;;1.38;100.00
74675;BME280;63200;48.810;12.352;2024-02-14T08:21:27;98126.22;;;1.42;100.00
74675;BME280;63200;48.810;12.352;2024-02-14T08:23:55;98136.09;;;1.48;100.00
74675;BME280;63200;48.810;12.352;2024-02-14T08:26:21;98137.53;;;1.58;100.00
74675;BME280;63200;48.810;12.352;2024-02-14T08:28:48;98131.03;;;1.86;100.00
74675;BME280;63200;48.810;12.352;2024-02-14T08:31:13;98130.78;;;2.00;100.00
74675;BME280;63200;48.810;12.352;2024-02-14T08:33:39;98131.47;;;2.28;100.00
74675;BME280;63200;48.810;12.352;2024-02-14T08:36:07;98118.94;;;2.54;100.00
74675;BME280;63200;48.810;12.352;2024-02-14T08:38:33;98120.25;;;2.70;100.00
74675;BME280;63200;48.810;12.352;2024-02-14T08:41:00;98113.75;;;2.84;100.00
74675;BME280;63200;48.810;12.352;2024-02-14T08:43:25;98110.78;;;2.92;100.00
74675;BME280;63200;48.810;12.352;2024-02-14T08:45:51;98108.78;;;2.88;100.00
74675;BME280;63200;48.810;12.352;2024-02-14T08:48:17;98106.91;;;2.88;100.00
74675;BME280;63200;48.810;12.352;2024-02-14T08:50:42;98105.44;;;2.92;100.00
74675;BME280;63200;48.810;12.352;2024-02-14T08:53:08;98101.59;;;3.07;100.00
74675;BME280;63200;48.810;12.352;2024-02-14T08:55:33;98105.72;;;3.28;100.00
74675;BME280;63200;48.810;12.352;2024-02-14T08:57:59;98095.75;;;3.35;100.00
74675;BME280;63200;48.810;12.352;2024-02-14T09:00:25;98096.88;;;3.27;100.00
74675;BME280;63200;48.810;12.352;2024-02-14T09:02:51;98084.13;;;2.97;100.00
74675;BME280;63200;48.810;12.352;2024-02-14T09:05:17;98090.06;;;2.81;100.00
74675;BME280;63200;48.810;12.352;2024-02-14T09:07:43;98039.78;;;2.51;100.00
74675;BME280;63200;48.810;12.352;2024-02-14T09:10:09;98084.44;;;2.89;100.00
74675;BME280;63200;48.810;12.352;2024-02-14T09:12:38;98085.63;;;2.93;100.00
74675;BME280;63200;48.810;12.352;2024-02-14T09:15:04;98086.59;;;2.99;100.00
74675;BME280;63200;48.810;12.352;2024-02-14T09:17:30;98060.41;;;2.76;100.00
74675;BME280;63200;48.810;12.352;2024-02-14T09:19:55;98087.75;;;3.10;100.00
74675;BME280;63200;48.810;12.352;2024-02-14T09:22:21;98108.00;;;3.31;100.00
74675;BME280;63200;48.810;12.352;2024-02-14T09:24:50;98123.03;;;3.50;100.00
74675;BME280;63200;48.810;12.352;2024-02-14T09:27:15;98116.00;;;3.56;100.00
74675;BME280;63200;48.810;12.352;2024-02-14T09:29:41;98119.94;;;3.54;100.00
74675;BME280;63200;48.810;12.352;2024-02-14T09:32:06;98125.31;;;3.54;100.00
74675;BME280;63200;48.810;12.352;2024-02-14T09:34:31;98080.84;;;3.39;100.00
74675;BME280;63200;48.810;12.352;2024-02-14T09:36:57;98117.25;;;3.54;100.00
74675;BME280;63200;48.810;12.352;2024-02-14T09:39:24;98131.09;;;3.69;100.00
74675;BME280;63200;48.810;12.352;2024-02-14T09:41:54;98130.66;;;3.91;100.00
74675;BME280;63200;48.810;12.352;2024-02-14T09:44:26;98132.38;;;4.04;100.00
74675;BME280;63200;48.810;12.352;2024-02-14T09:46:54;98133.72;;;4.13;100.00
74675;BME280;63200;48.810;12.352;2024-02-14T09:49:21;98134.94;;;4.29;100.00
74675;BME280;63200;48.810;12.352;2024-02-14T09:51:47;98139.81;;;4.20;100.00
74675;BME280;63200;48.810;12.352;2024-02-14T09:54:15;98093.34;;;4.01;100.00
74675;BME280;63200;48.810;12.352;2024-02-14T09:56:42;98148.06;;;4.37;100.00
74675;BME280;63200;48.810;12.352;2024-02-14T09:59:09;98144.97;;;4.52;100.00
74675;BME280;63200;48.810;12.352;2024-02-14T10:01:34;98141.97;;;4.72;100.00
74675;BME280;63200;48.810;12.352;2024-02-14T10:04:00;98115.00;;;4.37;100.00
74675;BME280;63200;48.810;12.352;2024-02-14T10:06:25;98146.53;;;4.72;100.00
74675;BME280;63200;48.810;12.352;2024-02-14T10:08:50;98137.19;;;4.74;100.00
74675;BME280;63200;48.810;12.352;2024-02-14T10:11:19;98132.03;;;4.73;100.00
74675;BME280;63200;48.810;12.352;2024-02-14T10:13:49;98122.25;;;4.90;100.00
74675;BME280;63200;48.810;12.352;2024-02-14T10:16:16;98130.94;;;5.16;100.00
74675;BME280;63200;48.810;12.352;2024-02-14T10:18:44;98127.66;;;5.38;100.00
74675;BME280;63200;48.810;12.352;2024-02-14T10:21:14;98123.22;;;5.43;100.00
74675;BME280;63200;48.810;12.352;2024-02-14T10:23:40;98126.25;;;5.47;100.00
74675;BME280;63200;48.810;12.352;2024-02-14T10:26:05;98125.44;;;5.46;100.00
74675;BME280;63200;48.810;12.352;2024-02-14T10:28:32;98126.25;;;5.59;100.00
74675;BME280;63200;48.810;12.352;2024-02-14T10:30:58;98121.22;;;5.62;100.00
74675;BME280;63200;48.810;12.352;2024-02-14T10:33:27;98121.53;;;5.66;100.00
74675;BME280;63200;48.810;12.352;2024-02-14T10:35:54;98065.50;;;5.39;100.00
74675;BME280;63200;48.810;12.352;2024-02-14T10:38:22;98111.88;;;5.94;100.00
74675;BME280;63200;48.810;12.352;2024-02-14T10:40:47;98097.78;;;6.15;100.00
74675;BME280;63200;48.810;12.352;2024-02-14T10:43:14;98094.81;;;6.29;100.00
74675;BME280;63200;48.810;12.352;2024-02-14T10:45:39;98081.88;;;6.31;100.00
74675;BME280;63200;48.810;12.352;2024-02-14T10:48:05;98038.06;;;5.95;100.00
74675;BME280;63200;48.810;12.352;2024-02-14T10:50:36;98049.81;;;6.17;100.00
74675;BME280;63200;48.810;12.352;2024-02-14T10:53:04;98093.78;;;6.64;100.00
74675;BME280;63200;48.810;12.352;2024-02-14T10:55:30;98098.88;;;6.94;100.00
74675;BME280;63200;48.810;12.352;2024-02-14T10:57:57;98087.25;;;7.11;100.00
74675;BME280;63200;48.810;12.352;2024-02-14T11:00:23;98098.84;;;7.28;100.00
74675;BME280;63200;48.810;12.352;2024-02-14T11:02:50;98048.00;;;7.03;100.00
74675;BME280;63200;48.810;12.352;2024-02-14T11:05:19;98108.28;;;7.26;100.00
74675;BME280;63200;48.810;12.352;2024-02-14T11:07:47;98103.19;;;7.29;100.00
74675;BME280;63200;48.810;12.352;2024-02-14T11:10:15;98116.06;;;7.05;100.00
74675;BME280;63200;48.810;12.352;2024-02-14T11:12:41;98110.41;;;6.73;100.00
74675;BME280;63200;48.810;12.352;2024-02-14T11:17:37;98112.56;;;6.42;100.00
74675;BME280;63200;48.810;12.352;2024-02-14T11:20:32;98109.44;;;6.33;100.00
74675;BME280;63200;48.810;12.352;2024-02-14T11:23:04;98098.78;;;6.26;100.00
74675;BME280;63200;48.810;12.352;2024-02-14T11:25:34;98098.00;;;6.43;100.00
74675;BME280;63200;48.810;12.352;2024-02-14T11:28:01;98087.66;;;6.69;100.00
74675;BME280;63200;48.810;12.352;2024-02-14T11:30:40;98083.34;;;6.84;100.00
74675;BME280;63200;48.810;12.352;2024-02-14T11:33:15;98077.94;;;7.02;100.00
74675;BME280;63200;48.810;12.352;2024-02-14T11:35:41;98072.44;;;7.13;100.00
74675;BME280;63200;48.810;12.352;2024-02-14T11:38:08;98071.34;;;7.31;100.00
74675;BME280;63200;48.810;12.352;2024-02-14T11:40:35;98070.50;;;7.48;100.00
74675;BME280;63200;48.810;12.352;2024-02-14T11:43:00;98068.00;;;7.86;100.00
74675;BME280;63200;48.810;12.352;2024-02-14T11:45:27;98037.16;;;8.09;100.00
74675;BME280;63200;48.810;12.352;2024-02-14T11:47:52;98059.03;;;8.57;100.00
74675;BME280;63200;48.810;12.352;2024-02-14T11:50:17;98064.00;;;8.70;99.15
74675;BME280;63200;48.810;12.352;2024-02-14T11:52:44;98051.16;;;8.88;94.63
74675;BME280;63200;48.810;12.352;2024-02-14T11:55:09;98045.34;;;9.11;87.25
74675;BME280;63200;48.810;12.352;2024-02-14T11:57:35;98064.59;;;9.10;83.09
74675;BME280;63200;48.810;12.352;2024-02-14T12:00:01;98064.63;;;9.15;89.88
74675;BME280;63200;48.810;12.352;2024-02-14T12:02:27;98065.00;;;9.29;88.30
74675;BME280;63200;48.810;12.352;2024-02-14T12:04:53;98063.50;;;9.11;85.84
74675;BME280;63200;48.810;12.352;2024-02-14T12:07:20;98071.41;;;9.17;86.79
74675;BME280;63200;48.810;12.352;2024-02-14T12:09:47;98052.81;;;8.94;90.08
74675;BME280;63200;48.810;12.352;2024-02-14T12:12:14;98069.53;;;8.80;88.49
74675;BME280;63200;48.810;12.352;2024-02-14T12:14:42;98062.31;;;8.59;82.39
74675;BME280;63200;48.810;12.352;2024-02-14T12:17:09;98034.56;;;8.46;87.54
74675;BME280;63200;48.810;12.352;2024-02-14T12:19:35;98060.75;;;8.68;92.77
74675;BME280;63200;48.810;12.352;2024-02-14T12:22:09;98061.13;;;8.82;86.58
74675;BME280;63200;48.810;12.352;2024-02-14T12:24:37;98055.88;;;9.03;86.60
74675;BME280;63200;48.810;12.352;2024-02-14T12:27:04;98056.25;;;8.79;84.39
74675;BME280;63200;48.810;12.352;2024-02-14T12:29:30;98053.63;;;8.57;93.82
74675;BME280;63200;48.810;12.352;2024-02-14T12:32:05;98054.00;;;8.43;91.59
74675;BME280;63200;48.810;12.352;2024-02-14T12:34:31;98052.78;;;8.29;92.64
74675;BME280;63200;48.810;12.352;2024-02-14T12:36:57;98048.31;;;8.12;100.00
74675;BME280;63200;48.810;12.352;2024-02-14T12:39:22;98044.78;;;7.90;100.00
74675;BME280;63200;48.810;12.352;2024-02-14T12:41:48;98047.63;;;7.78;100.00
74675;BME280;63200;48.810;12.352;2024-02-14T12:44:13;98050.72;;;7.87;100.00